sensor_id;sensor_type;location;lat;lon;timestamp;pressure;altitude;pressure_sealevel;temperature;humidity
43155;BME280;34212;51.018;13.586;2023-05-29T05:01:10;98211.72;;;12.45;58.81
43155;BME280;34212;51.018;13.586;2023-05-29T05:06:16;98195.31;;;12.63;58.39
43155;BME280;34212;51.018;13.586;2023-05-29T05:11:19;98204.84;;;12.81;58.65
43155;BME280;34212;51.018;13.586;2023-05-29T05:16:22;98207.50;;;12.95;58.77
43155;BME280;34212;51.018;13.586;2023-05-29T05:21:24;98213.97;;;13.16;58.71
43155;BME280;34212;51.018;13.586;2023-05-29T05:26:27;98225.31;;;13.33;58.51
43155;BME280;34212;51.018;13.586;2023-05-29T05:31:30;98215.84;;;13.52;58.81
43155;BME280;34212;51.018;13.586;2023-05-29T05:36:33;98227.84;;;13.71;58.61
43155;BME280;34212;51.018;13.586;2023-05-29T05:41:42;98226.19;;;13.91;58.82
43155;BME280;34212;51.018;13.586;2023-05-29T05:46:45;98228.22;;;14.10;58.49
43155;BME280;34212;51.018;13.586;2023-05-29T05:51:47;98225.91;;;14.29;58.84
43155;BME280;34212;51.018;13.586;2023-05-29T05:56:51;98227.09;;;14.48;58.46
43155;BME280;34212;51.018;13.586;2023-05-29T06:01:53;98227.47;;;14.66;58.20
43155;BME280;34212;51.018;13.586;2023-05-29T06:06:55;98234.22;;;14.84;57.66
43155;BME280;34212;51.018;13.586;2023-05-29T06:11:56;98239.28;;;15.00;57.33
43155;BME280;34212;51.018;13.586;2023-05-29T06:16:58;98242.44;;;15.17;57.61
43155;BME280;34212;51.018;13.586;2023-05-29T06:22:00;98247.31;;;15.35;57.66
43155;BME280;34212;51.018;13.586;2023-05-29T06:27:05;98254.63;;;15.54;57.50
43155;BME280;34212;51.018;13.586;2023-05-29T06:32:07;98244.16;;;15.73;57.60
43155;BME280;34212;51.018;13.586;2023-05-29T06:37:09;98246.31;;;15.90;57.09
43155;BME280;34212;51.018;13.586;2023-05-29T06:42:11;98252.13;;;16.07;56.95
43155;BME280;34212;51.018;13.586;2023-05-29T06:47:16;98264.16;;;16.25;56.58
43155;BME280;34212;51.018;13.586;2023-05-29T06:52:19;98256.72;;;16.40;56.25
43155;BME280;34212;51.018;13.586;2023-05-29T06:57:41;98249.91;;;16.57;55.92
43155;BME280;34212;51.018;13.586;2023-05-29T07:02:42;98264.59;;;16.75;54.60
43155;BME280;34212;51.018;13.586;2023-05-29T07:07:45;98267.75;;;16.92;53.33
43155;BME280;34212;51.018;13.586;2023-05-29T07:12:47;98273.50;;;17.08;52.41
43155;BME280;34212;51.018;13.586;2023-05-29T07:17:49;98276.78;;;17.24;52.09
43155;BME280;34212;51.018;13.586;2023-05-29T07:22:55;98276.31;;;17.40;51.26
43155;BME280;34212;51.018;13.586;2023-05-29T07:27:57;98276.06;;;17.55;50.87
43155;BME280;34212;51.018;13.586;2023-05-29T07:33:14;98287.44;;;17.70;50.65
43155;BME280;34212;51.018;13.586;2023-05-29T07:38:17;98288.44;;;17.83;50.01
43155;BME280;34212;51.018;13.586;2023-05-29T07:43:22;98289.19;;;17.96;49.65
43155;BME280;34212;51.018;13.586;2023-05-29T07:48:30;98295.38;;;18.10;49.06
43155;BME280;34212;51.018;13.586;2023-05-29T07:53:33;98301.72;;;18.22;48.73
43155;BME280;34212;51.018;13.586;2023-05-29T07:58:35;98306.81;;;18.37;48.27
43155;BME280;34212;51.018;13.586;2023-05-29T08:03:43;98302.59;;;18.48;47.62
43155;BME280;34212;51.018;13.586;2023-05-29T08:08:45;98306.91;;;18.56;46.59
43155;BME280;34212;51.018;13.586;2023-05-29T08:13:47;98309.94;;;18.66;45.95
43155;BME280;34212;51.018;13.586;2023-05-29T08:18:54;98304.91;;;18.76;46.31
43155;BME280;34212;51.018;13.586;2023-05-29T08:23:56;98313.56;;;18.85;46.40
43155;BME280;34212;51.018;13.586;2023-05-29T08:28:58;98316.38;;;18.97;46.37
43155;BME280;34212;51.018;13.586;2023-05-29T08:33:59;98305.50;;;19.03;46.01
43155;BME280;34212;51.018;13.586;2023-05-29T08:39:01;98304.16;;;19.12;46.02
43155;BME280;34212;51.018;13.586;2023-05-29T08:44:03;98300.13;;;19.22;46.49
43155;BME280;34212;51.018;13.586;2023-05-29T08:49:08;98297.50;;;19.33;46.48
43155;BME280;34212;51.018;13.586;2023-05-29T08:54:11;98295.56;;;19.41;46.18
43155;BME280;34212;51.018;13.586;2023-05-29T08:59:15;98308.78;;;19.49;46.34
43155;BME280;34212;51.018;13.586;2023-05-29T09:04:18;98320.97;;;19.58;46.54
43155;BME280;34212;51.018;13.586;2023-05-29T09:09:20;98311.97;;;19.64;46.82
43155;BME280;34212;51.018;13.586;2023-05-29T09:14:41;98304.84;;;19.70;46.98
43155;BME280;34212;51.018;13.586;2023-05-29T09:19:43;98309.34;;;19.76;46.75
43155;BME280;34212;51.018;13.586;2023-05-29T09:24:48;98304.22;;;19.86;46.13
43155;BME280;34212;51.018;13.586;2023-05-29T09:29:49;98325.34;;;19.96;45.81
43155;BME280;34212;51.018;13.586;2023-05-29T09:34:53;98316.31;;;20.02;45.41
43155;BME280;34212;51.018;13.586;2023-05-29T09:39:55;98315.53;;;20.13;44.75
43155;BME280;34212;51.018;13.586;2023-05-29T09:44:59;98304.53;;;20.26;44.22
43155;BME280;34212;51.018;13.586;2023-05-29T09:50:01;98313.97;;;20.36;43.57
43155;BME280;34212;51.018;13.586;2023-05-29T09:55:03;98316.22;;;20.39;43.32
43155;BME280;34212;51.018;13.586;2023-05-29T10:00:05;98309.28;;;20.43;42.73
43155;BME280;34212;51.018;13.586;2023-05-29T10:05:15;98304.22;;;20.46;42.13
43155;BME280;34212;51.018;13.586;2023-05-29T10:10:17;98300.81;;;20.51;42.04
43155;BME280;34212;51.018;13.586;2023-05-29T10:15:20;98307.44;;;20.55;42.37
43155;BME280;34212;51.018;13.586;2023-05-29T10:20:26;98309.38;;;20.66;42.03
43155;BME280;34212;51.018;13.586;2023-05-29T10:25:31;98296.41;;;20.68;42.46
43155;BME280;34212;51.018;13.586;2023-05-29T10:30:57;98305.50;;;20.86;41.98
43155;BME280;34212;51.018;13.586;2023-05-29T10:36:16;98295.53;;;21.10;41.41
43155;BME280;34212;51.018;13.586;2023-05-29T10:51:43;98295.16;;;21.53;41.12
43155;BME280;34212;51.018;13.586;2023-05-29T10:56:52;98291.59;;;21.64;40.41
43155;BME280;34212;51.018;13.586;2023-05-29T11:01:55;98288.03;;;21.76;40.12
43155;BME280;34212;51.018;13.586;2023-05-29T11:07:00;98288.91;;;21.93;39.42
43155;BME280;34212;51.018;13.586;2023-05-29T11:12:23;98287.72;;;22.01;38.83
43155;BME280;34212;51.018;13.586;2023-05-29T11:27:50;98272.06;;;22.20;38.83
43155;BME280;34212;51.018;13.586;2023-05-29T11:32:58;98270.28;;;22.25;38.28
43155;BME280;34212;51.018;13.586;2023-05-29T11:38:03;98268.16;;;22.16;38.37
43155;BME280;34212;51.018;13.586;2023-05-29T11:43:05;98273.59;;;22.16;39.15
43155;BME280;34212;51.018;13.586;2023-05-29T11:48:06;98270.00;;;22.27;38.51
43155;BME280;34212;51.018;13.586;2023-05-29T11:53:08;98273.22;;;22.52;38.07
43155;BME280;34212;51.018;13.586;2023-05-29T11:58:10;98268.69;;;22.75;37.65
43155;BME280;34212;51.018;13.586;2023-05-29T12:03:11;98271.47;;;22.63;37.34
43155;BME280;34212;51.018;13.586;2023-05-29T12:08:13;98272.78;;;22.44;37.32
43155;BME280;34212;51.018;13.586;2023-05-29T12:13:14;98270.72;;;22.51;37.26
43155;BME280;34212;51.018;13.586;2023-05-29T12:18:18;98256.06;;;22.69;36.54
43155;BME280;34212;51.018;13.586;2023-05-29T12:23:20;98264.38;;;22.79;35.73
43155;BME280;34212;51.018;13.586;2023-05-29T12:28:22;98259.53;;;22.81;35.77
43155;BME280;34212;51.018;13.586;2023-05-29T12:33:33;98248.66;;;22.81;35.21
43155;BME280;34212;51.018;13.586;2023-05-29T12:38:49;98251.63;;;22.79;35.07
43155;BME280;34212;51.018;13.586;2023-05-29T12:43:53;98243.22;;;22.81;35.62
43155;BME280;34212;51.018;13.586;2023-05-29T12:48:55;98243.78;;;22.83;35.30
43155;BME280;34212;51.018;13.586;2023-05-29T12:53:57;98252.97;;;22.94;35.05
43155;BME280;34212;51.018;13.586;2023-05-29T12:58:59;98256.16;;;23.46;34.91
43155;BME280;34212;51.018;13.586;2023-05-29T13:04:01;98245.56;;;25.65;32.58
43155;BME280;34212;51.018;13.586;2023-05-29T13:09:03;98234.66;;;28.24;30.26
43155;BME280;34212;51.018;13.586;2023-05-29T13:14:05;98226.00;;;30.44;29.25
43155;BME280;34212;51.018;13.586;2023-05-29T13:19:07;98218.78;;;30.48;28.25
43155;BME280;34212;51.018;13.586;2023-05-29T13:24:08;98218.53;;;28.91;28.34
43155;BME280;34212;51.018;13.586;2023-05-29T13:29:10;98220.00;;;27.45;29.88
43155;BME280;34212;51.018;13.586;2023-05-29T13:34:12;98217.66;;;26.82;30.33
43155;BME280;34212;51.018;13.586;2023-05-29T13:39:13;98207.81;;;26.51;31.34
43155;BME280;34212;51.018;13.586;2023-05-29T13:44:15;98212.97;;;26.26;31.06
43155;BME280;34212;51.018;13.586;2023-05-29T13:49:16;98218.28;;;25.75;31.09
43155;BME280;34212;51.018;13.586;2023-05-29T13:54:18;98209.16;;;25.44;31.14
43155;BME280;34212;51.018;13.586;2023-05-29T13:59:19;98213.97;;;25.22;31.47
43155;BME280;34212;51.018;13.586;2023-05-29T14:04:21;98209.31;;;25.17;32.46
43155;BME280;34212;51.018;13.586;2023-05-29T14:09:23;98206.31;;;25.19;32.56
43155;BME280;34212;51.018;13.586;2023-05-29T14:14:28;98213.31;;;25.09;32.28
43155;BME280;34212;51.018;13.586;2023-05-29T14:19:30;98195.81;;;25.00;31.98
43155;BME280;34212;51.018;13.586;2023-05-29T14:24:31;98201.19;;;24.90;32.87
43155;BME280;34212;51.018;13.586;2023-05-29T14:29:33;98201.69;;;24.82;32.91
43155;BME280;34212;51.018;13.586;2023-05-29T14:34:34;98207.31;;;24.70;33.25
43155;BME280;34212;51.018;13.586;2023-05-29T14:39:36;98204.59;;;24.70;33.33
43155;BME280;34212;51.018;13.586;2023-05-29T14:44:37;98212.19;;;24.63;33.24
43155;BME280;34212;51.018;13.586;2023-05-29T14:49:38;98206.16;;;24.56;33.08
43155;BME280;34212;51.018;13.586;2023-05-29T14:54:40;98203.13;;;24.52;33.33
43155;BME280;34212;51.018;13.586;2023-05-29T14:59:42;98205.06;;;24.57;32.97
43155;BME280;34212;51.018;13.586;2023-05-29T15:04:43;98206.22;;;24.66;33.02
43155;BME280;34212;51.018;13.586;2023-05-29T15:09:45;98194.56;;;24.76;32.90
43155;BME280;34212;51.018;13.586;2023-05-29T15:14:47;98199.56;;;24.52;32.67
43155;BME280;34212;51.018;13.586;2023-05-29T15:19:48;98198.19;;;24.22;33.55
43155;BME280;34212;51.018;13.586;2023-05-29T15:24:50;98212.09;;;24.20;33.44
43155;BME280;34212;51.018;13.586;2023-05-29T15:29:51;98194.88;;;24.20;33.28
43155;BME280;34212;51.018;13.586;2023-05-29T15:34:53;98204.06;;;24.09;33.57
43155;BME280;34212;51.018;13.586;2023-05-29T15:39:55;98189.13;;;24.11;33.64
43155;BME280;34212;51.018;13.586;2023-05-29T15:44:56;98196.78;;;23.92;33.86
43155;BME280;34212;51.018;13.586;2023-05-29T15:49:58;98195.47;;;23.95;34.05
43155;BME280;34212;51.018;13.586;2023-05-29T15:54:59;98187.88;;;24.29;33.49
43155;BME280;34212;51.018;13.586;2023-05-29T16:00:04;98187.81;;;24.46;33.28
43155;BME280;34212;51.018;13.586;2023-05-29T16:05:10;98180.41;;;24.41;33.40
43155;BME280;34212;51.018;13.586;2023-05-29T16:10:13;98182.34;;;24.46;33.46
43155;BME280;34212;51.018;13.586;2023-05-29T16:15:17;98192.28;;;24.62;33.29
43155;BME280;34212;51.018;13.586;2023-05-29T16:20:20;98189.66;;;25.15;33.16
43155;BME280;34212;51.018;13.586;2023-05-29T16:25:23;98198.19;;;26.02;32.03
43155;BME280;34212;51.018;13.586;2023-05-29T16:30:25;98197.88;;;26.03;31.98
43155;BME280;34212;51.018;13.586;2023-05-29T16:35:26;98203.06;;;25.95;31.61
43155;BME280;34212;51.018;13.586;2023-05-29T16:40:28;98196.84;;;25.37;31.66
43155;BME280;34212;51.018;13.586;2023-05-29T16:45:29;98194.75;;;25.06;32.25
43155;BME280;34212;51.018;13.586;2023-05-29T16:50:31;98196.81;;;25.31;31.95
43155;BME280;34212;51.018;13.586;2023-05-29T16:55:32;98190.78;;;25.92;31.53
43155;BME280;34212;51.018;13.586;2023-05-29T17:00:34;98194.63;;;26.12;31.02
43155;BME280;34212;51.018;13.586;2023-05-29T17:05:35;98186.69;;;26.00;31.15
43155;BME280;34212;51.018;13.586;2023-05-29T17:10:37;98188.88;;;25.93;31.36
43155;BME280;34212;51.018;13.586;2023-05-29T17:15:39;98197.34;;;25.28;31.41
43155;BME280;34212;51.018;13.586;2023-05-29T17:20:41;98192.06;;;24.69;31.98
43155;BME280;34212;51.018;13.586;2023-05-29T17:25:43;98199.31;;;24.26;32.83
43155;BME280;34212;51.018;13.586;2023-05-29T17:30:44;98196.78;;;23.92;32.79
43155;BME280;34212;51.018;13.586;2023-05-29T17:35:46;98207.38;;;23.67;33.44
43155;BME280;34212;51.018;13.586;2023-05-29T17:40:48;98208.06;;;23.52;33.63
43155;BME280;34212;51.018;13.586;2023-05-29T17:45:50;98199.13;;;23.35;33.48
43155;BME280;34212;51.018;13.586;2023-05-29T17:50:53;98214.66;;;23.17;33.83
43155;BME280;34212;51.018;13.586;2023-05-29T17:56:04;98209.44;;;22.94;34.09
43155;BME280;34212;51.018;13.586;2023-05-29T18:01:05;98220.47;;;22.70;34.50
43155;BME280;34212;51.018;13.586;2023-05-29T18:06:07;98222.63;;;22.51;34.91
43155;BME280;34212;51.018;13.586;2023-05-29T18:11:09;98238.94;;;22.34;35.35
43155;BME280;34212;51.018;13.586;2023-05-29T18:16:11;98235.56;;;22.16;35.89
43155;BME280;34212;51.018;13.586;2023-05-29T18:21:12;98231.41;;;21.96;35.91
43155;BME280;34212;51.018;13.586;2023-05-29T18:26:14;98229.94;;;21.77;35.87
43155;BME280;34212;51.018;13.586;2023-05-29T18:31:15;98240.50;;;21.61;35.86
43155;BME280;34212;51.018;13.586;2023-05-29T18:36:19;98235.59;;;21.47;35.96
43155;BME280;34212;51.018;13.586;2023-05-29T18:41:21;98236.06;;;21.32;36.04
43155;BME280;34212;51.018;13.586;2023-05-29T18:46:22;98242.22;;;21.15;36.24
43155;BME280;34212;51.018;13.586;2023-05-29T18:51:24;98240.81;;;21.01;36.18
43155;BME280;34212;51.018;13.586;2023-05-29T18:56:26;98254.34;;;20.89;36.40
43155;BME280;34212;51.018;13.586;2023-05-29T19:01:28;98249.53;;;20.80;36.33
43155;BME280;34212;51.018;13.586;2023-05-29T19:06:33;98250.94;;;20.70;36.46
43155;BME280;34212;51.018;13.586;2023-05-29T19:11:35;98247.63;;;20.57;36.56
43155;BME280;34212;51.018;13.586;2023-05-29T19:16:36;98253.13;;;20.50;36.72
43155;BME280;34212;51.018;13.586;2023-05-29T19:21:37;98252.63;;;20.41;36.86
43155;BME280;34212;51.018;13.586;2023-05-29T19:26:40;98263.28;;;20.24;37.21
43155;BME280;34212;51.018;13.586;2023-05-29T19:31:42;98271.91;;;20.03;37.71
43155;BME280;34212;51.018;13.586;2023-05-29T19:36:43;98271.28;;;19.89;37.88
43155;BME280;34212;51.018;13.586;2023-05-29T19:41:45;98279.78;;;19.74;38.30
43155;BME280;34212;51.018;13.586;2023-05-29T19:46:46;98284.94;;;19.64;38.05
43155;BME280;34212;51.018;13.586;2023-05-29T19:51:50;98298.34;;;19.52;38.18
43155;BME280;34212;51.018;13.586;2023-05-29T19:56:52;98301.84;;;19.34;38.49
43155;BME280;34212;51.018;13.586;2023-05-29T20:01:54;98305.75;;;19.20;38.66
43155;BME280;34212;51.018;13.586;2023-05-29T20:06:56;98308.75;;;19.12;38.71
43155;BME280;34212;51.018;13.586;2023-05-29T20:11:57;98309.25;;;19.02;38.54
43155;BME280;34212;51.018;13.586;2023-05-29T20:16:59;98307.31;;;18.84;38.86
43155;BME280;34212;51.018;13.586;2023-05-29T20:22:07;98316.16;;;18.73;38.93
43155;BME280;34212;51.018;13.586;2023-05-29T20:27:08;98312.63;;;18.66;38.93
43155;BME280;34212;51.018;13.586;2023-05-29T20:32:18;98318.75;;;18.55;39.31
43155;BME280;34212;51.018;13.586;2023-05-29T20:37:20;98306.31;;;18.47;39.16
43155;BME280;34212;51.018;13.586;2023-05-29T20:42:24;98322.81;;;18.39;39.30
43155;BME280;34212;51.018;13.586;2023-05-29T20:47:26;98323.88;;;18.31;39.67
43155;BME280;34212;51.018;13.586;2023-05-29T20:52:27;98327.00;;;18.28;39.58
43155;BME280;34212;51.018;13.586;2023-05-29T20:57:29;98316.06;;;18.23;39.90
43155;BME280;34212;51.018;13.586;2023-05-29T21:02:30;98327.72;;;18.17;39.95
43155;BME280;34212;51.018;13.586;2023-05-29T21:07:32;98328.75;;;18.16;39.86
43155;BME280;34212;51.018;13.586;2023-05-29T21:12:37;98331.03;;;18.12;39.74
43155;BME280;34212;51.018;13.586;2023-05-29T21:17:38;98337.72;;;18.03;40.03
43155;BME280;34212;51.018;13.586;2023-05-29T21:22:40;98324.94;;;17.92;40.29
43155;BME280;34212;51.018;13.586;2023-05-29T21:27:42;98337.41;;;17.86;40.47
43155;BME280;34212;51.018;13.586;2023-05-29T21:32:43;98334.50;;;17.81;40.62
43155;BME280;34212;51.018;13.586;2023-05-29T21:37:45;98327.22;;;17.75;40.74
43155;BME280;34212;51.018;13.586;2023-05-29T21:42:46;98337.00;;;17.69;40.92
43155;BME280;34212;51.018;13.586;2023-05-29T21:47:48;98344.91;;;17.64;40.84
43155;BME280;34212;51.018;13.586;2023-05-29T21:52:49;98348.88;;;17.55;41.19
43155;BME280;34212;51.018;13.586;2023-05-29T21:57:51;98340.81;;;17.48;41.19
